createdAt,value
2022-08-10T00:00:23.148Z,24.61
2022-08-10T00:02:24.893Z,24.59
2022-08-10T00:04:26.633Z,24.58
2022-08-10T00:06:28.859Z,24.63
2022-08-10T00:08:31.192Z,24.66
2022-08-10T00:10:33.415Z,24.66
2022-08-10T00:12:53.513Z,24.68
2022-08-10T00:14:56.587Z,24.67
2022-08-10T00:16:58.280Z,24.61
2022-08-10T00:18:59.979Z,24.61
2022-08-10T00:21:01.753Z,24.60
2022-08-10T00:23:03.537Z,24.58
2022-08-10T00:25:06.298Z,24.58
2022-08-10T00:27:55.584Z,24.61
2022-08-10T00:29:30.007Z,24.57
2022-08-10T00:31:32.473Z,24.57
2022-08-10T00:33:54.198Z,24.55
2022-08-10T00:35:56.257Z,24.53
2022-08-10T00:37:58.256Z,24.52
2022-08-10T00:40:00.101Z,24.50
2022-08-10T00:42:07.671Z,24.48
2022-08-10T00:44:09.807Z,24.47
2022-08-10T00:46:11.977Z,24.38
2022-08-10T00:48:13.703Z,24.33
2022-08-10T00:50:18.129Z,24.30
2022-08-10T00:52:20.894Z,24.26
2022-08-10T00:54:24.627Z,24.23
2022-08-10T00:56:34.955Z,24.19
2022-08-10T00:58:49.251Z,24.23
2022-08-10T01:00:51.024Z,24.24
2022-08-10T01:02:53.412Z,24.18
2022-08-10T01:05:00.897Z,23.92
2022-08-10T01:07:27.074Z,23.86
2022-08-10T01:09:44.058Z,23.89
2022-08-10T01:12:39.510Z,23.92
2022-08-10T01:14:39.733Z,23.95
2022-08-10T01:16:54.284Z,23.89
2022-08-10T01:19:09.890Z,23.85
2022-08-10T01:21:38.947Z,23.86
2022-08-10T01:23:59.110Z,23.87
2022-08-10T01:26:40.818Z,23.84
2022-08-10T01:29:20.452Z,23.80
2022-08-10T01:31:49.892Z,23.77
2022-08-10T01:33:59.020Z,23.70
2022-08-10T01:36:18.636Z,23.70
2022-08-10T01:38:36.712Z,23.67
2022-08-10T01:40:52.308Z,23.63
2022-08-10T01:42:59.846Z,23.68
2022-08-10T01:45:11.608Z,23.63
2022-08-10T01:47:34.736Z,23.64
2022-08-10T01:49:38.760Z,23.66
2022-08-10T01:51:49.471Z,23.69
2022-08-10T01:53:56.899Z,23.74
2022-08-10T01:55:59.504Z,23.78
2022-08-10T01:58:05.206Z,23.79
2022-08-10T02:00:07.791Z,23.74
2022-08-10T02:02:11.717Z,23.41
2022-08-10T02:04:14.669Z,22.86
2022-08-10T02:06:16.561Z,22.83
2022-08-10T02:08:19.516Z,22.91
2022-08-10T02:10:22.736Z,23.04
2022-08-10T02:12:28.280Z,23.14
2022-08-10T02:14:34.633Z,23.22
2022-08-10T02:16:37.972Z,23.27
2022-08-10T02:18:41.046Z,23.26
2022-08-10T02:20:49.352Z,23.30
2022-08-10T02:22:54.534Z,23.30
2022-08-10T02:24:57.030Z,23.30
2022-08-10T02:26:59.777Z,23.26
2022-08-10T02:29:02.733Z,23.28
2022-08-10T02:31:11.593Z,23.33
2022-08-10T02:33:16.407Z,22.93
2022-08-10T02:35:22.725Z,22.71
2022-08-10T02:37:27.181Z,22.69
2022-08-10T02:39:28.822Z,22.72
2022-08-10T02:45:13.343Z,22.74
2022-08-10T02:45:17.698Z,22.80
2022-08-10T02:46:49.847Z,22.80
2022-08-10T02:49:00.627Z,22.77
2022-08-10T02:51:07.238Z,22.73
2022-08-10T02:53:55.576Z,22.63
2022-08-10T02:55:50.158Z,22.65
2022-08-10T02:58:13.398Z,22.68
2022-08-10T03:00:17.244Z,22.73
2022-08-10T03:02:32.653Z,22.79
2022-08-10T03:04:57.239Z,22.83
2022-08-10T03:07:06.250Z,22.88
2022-08-10T03:09:10.258Z,22.89
2022-08-10T03:11:18.598Z,22.89
2022-08-10T03:13:40.900Z,22.93
2022-08-10T03:15:43.307Z,22.96
2022-08-10T03:17:57.637Z,22.98
2022-08-10T03:20:34.273Z,23.03
2022-08-10T03:22:24.831Z,23.04
2022-08-10T03:24:30.359Z,23.04
2022-08-10T03:26:36.228Z,23.04
2022-08-10T03:28:38.481Z,23.06
2022-08-10T03:30:40.296Z,23.07
2022-08-10T03:32:44.197Z,23.08
2022-08-10T03:34:45.952Z,23.07
2022-08-10T03:36:47.839Z,23.04
2022-08-10T03:38:51.929Z,22.94
2022-08-10T03:40:55.854Z,22.88
2022-08-10T03:42:58.643Z,22.86
2022-08-10T03:45:02.759Z,22.93
2022-08-10T03:47:16.142Z,22.91
2022-08-10T03:49:18.623Z,22.93
2022-08-10T03:51:21.015Z,22.89
2022-08-10T03:53:24.983Z,22.91
2022-08-10T03:56:29.591Z,22.95
2022-08-10T03:58:07.037Z,22.97
2022-08-10T04:00:09.995Z,22.93
2022-08-10T04:02:45.458Z,23.01
2022-08-10T04:04:37.154Z,23.09
2022-08-10T04:06:39.311Z,23.10
2022-08-10T04:08:42.864Z,23.11
2022-08-10T04:10:44.864Z,23.15
2022-08-10T04:12:46.657Z,23.20
2022-08-10T04:14:51.589Z,23.24
2022-08-10T04:16:54.574Z,23.28
2022-08-10T04:18:56.549Z,23.36
2022-08-10T04:23:20.394Z,23.37
2022-08-10T04:25:23.391Z,23.36
2022-08-10T04:27:25.933Z,23.29
2022-08-10T04:29:28.233Z,23.28
2022-08-10T04:31:31.685Z,23.25
2022-08-10T04:33:35.664Z,23.22
2022-08-10T04:35:37.779Z,23.24
2022-08-10T04:37:43.341Z,23.23
2022-08-10T04:39:49.228Z,23.27
2022-08-10T04:41:51.267Z,23.15
2022-08-10T04:43:53.269Z,23.22
2022-08-10T04:45:55.725Z,23.08
2022-08-10T04:48:03.089Z,23.08
2022-08-10T04:50:06.011Z,23.09
2022-08-10T04:52:07.861Z,23.22
2022-08-10T04:54:12.996Z,23.20
2022-08-10T04:56:17.234Z,23.05
2022-08-10T04:58:19.150Z,22.78
2022-08-10T05:00:20.941Z,22.60
2022-08-10T05:02:31.531Z,22.33
2022-08-10T05:04:38.278Z,22.51
2022-08-10T05:06:41.213Z,22.06
2022-08-10T05:08:42.951Z,21.89
2022-08-10T05:10:44.917Z,21.71
2022-08-10T05:12:47.486Z,21.98
2022-08-10T05:14:49.597Z,21.98
2022-08-10T05:16:51.320Z,21.75
2022-08-10T05:18:53.186Z,21.78
2022-08-10T05:20:54.955Z,21.67
2022-08-10T05:22:56.628Z,21.57
2022-08-10T05:24:58.317Z,21.69
2022-08-10T05:27:09.507Z,21.69
2022-08-10T05:29:12.687Z,21.31
2022-08-10T05:31:22.445Z,21.45
2022-08-10T05:33:26.123Z,21.46
2022-08-10T05:35:55.066Z,21.57
2022-08-10T05:38:10.158Z,21.50
2022-08-10T05:40:14.963Z,21.62
2022-08-10T05:42:18.039Z,21.55
2022-08-10T05:44:24.127Z,21.43
2022-08-10T05:46:26.722Z,21.42
2022-08-10T05:48:55.065Z,21.60
2022-08-10T05:50:50.519Z,21.97
2022-08-10T05:52:52.650Z,22.25
2022-08-10T05:54:54.396Z,22.43
2022-08-10T05:56:58.307Z,22.74
2022-08-10T05:59:00.515Z,22.66
2022-08-10T06:01:05.574Z,22.46
2022-08-10T06:03:09.248Z,22.74
2022-08-10T06:05:16.392Z,22.80
2022-08-10T06:07:21.796Z,22.82
2022-08-10T06:09:24.404Z,22.87
2022-08-10T06:12:35.260Z,22.96
2022-08-10T06:14:13.749Z,23.12
2022-08-10T06:16:19.691Z,23.13
2022-08-10T06:18:23.494Z,22.77
2022-08-10T06:20:25.377Z,22.72
2022-08-10T06:22:33.463Z,22.98
2022-08-10T06:25:02.753Z,22.78
2022-08-10T06:27:02.790Z,22.64
2022-08-10T06:29:11.508Z,22.48
2022-08-10T06:31:14.451Z,22.60
2022-08-10T06:33:17.979Z,22.83
2022-08-10T06:35:19.631Z,23.15
2022-08-10T06:37:25.998Z,23.36
2022-08-10T06:39:36.619Z,22.96
2022-08-10T06:42:14.320Z,22.87
2022-08-10T06:44:09.764Z,22.46
2022-08-10T06:46:16.408Z,22.82
2022-08-10T06:48:32.485Z,22.85
2022-08-10T06:50:56.506Z,23.19
2022-08-10T06:53:02.421Z,23.58
2022-08-10T06:55:08.301Z,23.84
2022-08-10T06:57:18.843Z,24.06
2022-08-10T06:59:27.292Z,24.33
2022-08-10T07:01:34.076Z,24.47
2022-08-10T07:03:43.449Z,24.52
2022-08-10T07:05:50.987Z,24.27
2022-08-10T07:07:56.617Z,24.18
2022-08-10T07:10:01.703Z,24.44
2022-08-10T07:12:07.564Z,24.64
2022-08-10T07:14:18.365Z,24.14
2022-08-10T07:16:21.427Z,24.07
2022-08-10T07:18:24.319Z,24.17
2022-08-10T07:20:28.591Z,24.33
2022-08-10T07:23:01.503Z,24.59
2022-08-10T07:24:56.144Z,24.89
2022-08-10T07:26:58.779Z,24.74
2022-08-10T07:29:00.861Z,24.95
2022-08-10T07:31:03.762Z,25.02
2022-08-10T07:33:25.120Z,25.30
2022-08-10T07:35:31.946Z,25.35
2022-08-10T07:37:38.567Z,25.12
2022-08-10T07:39:57.987Z,25.31
2022-08-10T07:42:08.675Z,25.60
2022-08-10T07:44:12.716Z,25.65
2022-08-10T07:46:15.726Z,25.84
2022-08-10T07:48:25.267Z,25.94
2022-08-10T07:50:27.871Z,25.96
2022-08-10T07:52:35.767Z,25.42
2022-08-10T07:54:43.180Z,24.70
2022-08-10T07:56:49.592Z,24.85
2022-08-10T07:58:56.807Z,24.62
2022-08-10T08:00:59.170Z,24.60
2022-08-10T08:03:02.837Z,24.34
2022-08-10T08:05:09.713Z,24.65
2022-08-10T08:07:13.239Z,25.01
2022-08-10T08:09:15.487Z,25.41
2022-08-10T08:11:26.238Z,25.63
2022-08-10T08:13:29.106Z,25.84
2022-08-10T08:16:19.903Z,25.90
2022-08-10T08:17:59.797Z,25.50
2022-08-10T08:20:03.473Z,25.71
2022-08-10T08:24:04.513Z,26.03
2022-08-10T08:24:30.788Z,26.42
2022-08-10T08:26:34.804Z,26.67
2022-08-10T08:28:37.173Z,26.49
2022-08-10T08:30:40.189Z,26.54
2022-08-10T08:33:20.128Z,26.36
2022-08-10T08:35:35.407Z,26.29
2022-08-10T08:38:29.655Z,26.04
2022-08-10T08:40:03.214Z,26.35
2022-08-10T08:42:05.461Z,26.62
2022-08-10T08:44:14.931Z,27.00
2022-08-10T08:46:33.387Z,26.91
2022-08-10T08:50:09.183Z,26.75
2022-08-10T08:52:07.391Z,26.25
2022-08-10T08:54:33.030Z,26.45
2022-08-10T08:57:00.077Z,26.86
2022-08-10T08:59:35.700Z,27.23
2022-08-10T09:02:01.824Z,27.44
2022-08-10T09:04:42.261Z,27.78
2022-08-10T09:07:59.296Z,27.56
2022-08-10T09:09:51.145Z,26.80
2022-08-10T09:12:38.809Z,26.71
2022-08-10T09:14:52.092Z,26.92
2022-08-10T09:16:59.805Z,26.90
2022-08-10T09:19:19.678Z,26.90
2022-08-10T09:22:17.422Z,26.98
2022-08-10T09:24:37.046Z,27.24
2022-08-10T09:26:41.895Z,27.65
2022-08-10T09:28:43.987Z,27.96
2022-08-10T09:31:23.418Z,28.35
2022-08-10T09:36:25.567Z,28.11
2022-08-10T09:36:32.400Z,28.30
2022-08-10T09:39:10.091Z,28.29
2022-08-10T09:41:13.991Z,28.44
2022-08-10T09:43:25.330Z,27.80
2022-08-10T09:46:06.491Z,27.68
2022-08-10T09:48:14.025Z,27.85
2022-08-10T09:51:16.431Z,27.70
2022-08-10T09:53:22.564Z,27.58
2022-08-10T09:56:18.047Z,27.43
2022-08-10T09:58:36.099Z,27.30
2022-08-10T10:00:47.897Z,27.27
2022-08-10T10:03:11.792Z,27.10
2022-08-10T10:05:24.920Z,27.26
2022-08-10T10:07:27.923Z,27.43
2022-08-10T10:09:37.617Z,27.54
2022-08-10T10:11:53.408Z,27.46
2022-08-10T10:14:22.586Z,27.48
2022-08-10T10:16:48.231Z,27.58
2022-08-10T10:18:59.388Z,27.77
2022-08-10T10:21:54.967Z,27.74
2022-08-10T10:24:21.291Z,28.40
2022-08-10T10:26:49.299Z,28.07
2022-08-10T10:29:37.708Z,28.27
2022-08-10T10:31:39.957Z,28.14
2022-08-10T10:34:00.281Z,28.16
2022-08-10T10:36:02.844Z,27.74
2022-08-10T10:38:10.535Z,27.73
2022-08-10T10:40:14.932Z,27.68
2022-08-10T10:42:46.035Z,27.80
2022-08-10T10:45:20.457Z,27.97
2022-08-10T10:47:52.208Z,27.85
2022-08-10T10:50:10.994Z,27.65
2022-08-10T10:52:27.074Z,27.66
2022-08-10T10:54:39.571Z,27.26
2022-08-10T10:56:58.288Z,27.30
2022-08-10T10:59:56.475Z,27.44
2022-08-10T11:01:43.964Z,27.39
2022-08-10T11:04:02.530Z,27.34
2022-08-10T11:06:40.632Z,27.20
2022-08-10T11:08:47.191Z,27.14
2022-08-10T11:11:59.860Z,27.10
2022-08-10T11:14:27.565Z,27.67
2022-08-10T11:16:44.968Z,27.95
2022-08-10T11:19:10.920Z,27.65
2022-08-10T11:21:32.495Z,27.72
2022-08-10T11:24:43.007Z,27.92
2022-08-10T11:26:26.346Z,27.82
2022-08-10T11:28:36.952Z,27.82
2022-08-10T11:30:48.157Z,28.04
2022-08-10T11:32:58.895Z,27.76
2022-08-10T11:35:13.084Z,27.80
2022-08-10T11:38:34.264Z,27.46
2022-08-10T11:40:07.234Z,27.37
2022-08-10T11:42:40.128Z,27.20
2022-08-10T11:44:54.922Z,26.63
2022-08-10T11:47:08.399Z,26.70
2022-08-10T11:49:13.704Z,26.98
2022-08-10T11:51:46.365Z,26.79
2022-08-10T11:53:57.893Z,26.92
2022-08-10T11:56:00.432Z,27.07
2022-08-10T11:58:41.715Z,27.13
2022-08-10T12:00:43.428Z,27.01
2022-08-10T12:02:50.377Z,26.96
2022-08-10T12:05:09.728Z,26.95
2022-08-10T12:08:54.647Z,26.81
2022-08-10T12:10:09.248Z,26.76
2022-08-10T12:12:01.044Z,26.77
2022-08-10T12:14:23.475Z,26.92
2022-08-10T12:16:27.383Z,26.57
2022-08-10T12:18:47.364Z,26.24
2022-08-10T12:20:54.122Z,26.13
2022-08-10T12:22:57.241Z,26.07
2022-08-10T12:25:03.197Z,26.00
2022-08-10T12:27:24.431Z,25.79
2022-08-10T12:29:42.218Z,25.84
2022-08-10T12:31:54.785Z,25.69
2022-08-10T12:34:20.412Z,25.22
2022-08-10T12:36:36.737Z,25.31
2022-08-10T12:38:53.235Z,25.30
2022-08-10T12:41:00.410Z,25.35
2022-08-10T12:44:04.557Z,25.02
2022-08-10T12:45:44.011Z,25.07
2022-08-10T12:48:00.270Z,25.02
2022-08-10T12:50:30.533Z,24.92
2022-08-10T12:52:40.265Z,24.86
2022-08-10T12:54:43.363Z,24.72
2022-08-10T12:57:00.301Z,24.71
2022-08-10T12:59:05.693Z,24.94
2022-08-10T13:01:17.124Z,25.01
2022-08-10T13:04:21.633Z,25.12
2022-08-10T13:06:02.559Z,25.37
2022-08-10T13:08:27.884Z,25.54
2022-08-10T13:10:30.320Z,25.41
2022-08-10T13:12:40.102Z,25.32
2022-08-10T13:15:49.183Z,25.41
2022-08-10T13:17:56.059Z,25.30
2022-08-10T13:20:08.173Z,25.25
2022-08-10T13:22:16.187Z,25.48
2022-08-10T13:24:28.061Z,25.67
2022-08-10T13:26:31.274Z,25.86
2022-08-10T13:28:39.573Z,26.05
2022-08-10T13:30:43.600Z,26.26
2022-08-10T13:32:53.307Z,26.35
2022-08-10T13:34:58.327Z,26.25
2022-08-10T13:37:02.581Z,26.35
2022-08-10T13:39:06.601Z,26.46
2022-08-10T13:41:09.160Z,26.39
2022-08-10T13:43:11.780Z,26.47
2022-08-10T13:45:16.843Z,26.36
2022-08-10T13:47:20.543Z,26.36
2022-08-10T13:49:23.278Z,26.35
2022-08-10T13:51:57.069Z,26.36
2022-08-10T13:53:52.129Z,26.43
2022-08-10T13:55:56.380Z,26.49
2022-08-10T13:58:00.657Z,26.49
2022-08-10T14:00:34.256Z,26.42
2022-08-10T14:02:41.211Z,26.34
2022-08-10T14:04:46.722Z,26.34
2022-08-10T14:06:53.420Z,26.29
2022-08-10T14:08:58.784Z,26.29
2022-08-10T14:11:11.537Z,26.24
2022-08-10T14:13:17.837Z,26.29
2022-08-10T14:15:26.790Z,26.27
2022-08-10T14:17:28.663Z,26.30
2022-08-10T14:19:32.988Z,26.30
2022-08-10T14:21:39.632Z,26.30
2022-08-10T14:23:53.072Z,26.34
2022-08-10T14:26:08.760Z,26.30
2022-08-10T14:28:11.485Z,26.27
2022-08-10T14:30:17.037Z,26.24
2022-08-10T14:32:22.414Z,26.19
2022-08-10T14:36:14.730Z,26.08
2022-08-10T14:37:00.285Z,25.97
2022-08-10T14:39:03.003Z,25.79
2022-08-10T14:42:01.085Z,25.39
2022-08-10T14:43:41.938Z,25.10
2022-08-10T14:45:46.569Z,25.00
2022-08-10T14:47:59.521Z,24.99
2022-08-10T14:50:04.087Z,24.75
2022-08-10T14:52:07.516Z,24.73
2022-08-10T14:54:15.896Z,24.67
2022-08-10T14:56:29.491Z,24.56
2022-08-10T14:58:36.134Z,24.43
2022-08-10T15:00:43.045Z,24.33
2022-08-10T15:02:53.034Z,24.13
2022-08-10T15:04:58.149Z,23.98
2022-08-10T15:07:22.224Z,24.00
2022-08-10T15:09:25.733Z,24.02
2022-08-10T15:12:15.901Z,23.87
2022-08-10T15:14:12.293Z,23.84
2022-08-10T15:16:14.015Z,23.73
2022-08-10T15:18:15.867Z,23.70
2022-08-10T15:20:21.339Z,23.71
2022-08-10T15:22:37.105Z,23.67
2022-08-10T15:25:25.160Z,23.69
2022-08-10T15:27:29.107Z,23.51
2022-08-10T15:29:31.821Z,23.44
2022-08-10T15:31:35.220Z,23.46
2022-08-10T15:34:07.892Z,23.45
2022-08-10T15:36:34.676Z,23.46
2022-08-10T15:38:41.204Z,23.46
2022-08-10T15:40:52.162Z,23.53
2022-08-10T15:43:24.523Z,23.46
2022-08-10T15:45:27.893Z,23.37
2022-08-10T15:47:45.910Z,23.36
2022-08-10T15:49:55.039Z,23.25
2022-08-10T15:52:39.047Z,23.27
2022-08-10T15:54:44.764Z,23.24
2022-08-10T15:57:01.509Z,23.16
2022-08-10T15:59:16.531Z,23.09
2022-08-10T16:02:04.087Z,23.02
2022-08-10T16:04:08.462Z,23.02
2022-08-10T16:06:24.375Z,23.04
2022-08-10T16:08:29.267Z,23.07
2022-08-10T16:10:38.680Z,23.04
2022-08-10T16:13:50.720Z,23.09
2022-08-10T16:15:31.679Z,22.98
2022-08-10T16:17:33.335Z,22.84
2022-08-10T16:19:57.425Z,22.70
2022-08-10T16:22:35.928Z,22.69
2022-08-10T16:24:30.685Z,22.67
2022-08-10T16:26:37.791Z,22.77
2022-08-10T16:28:43.777Z,22.83
2022-08-10T16:30:49.324Z,22.75
2022-08-10T16:32:52.691Z,22.79
2022-08-10T16:34:55.567Z,22.83
2022-08-10T16:37:06.142Z,22.78
2022-08-10T16:39:08.217Z,22.84
2022-08-10T16:42:05.358Z,22.82
2022-08-10T16:43:49.546Z,22.81
2022-08-10T16:45:55.531Z,22.73
2022-08-10T16:47:58.138Z,22.68
2022-08-10T16:50:04.494Z,22.67
2022-08-10T16:52:06.950Z,22.69
2022-08-10T16:54:09.537Z,22.67
2022-08-10T16:56:12.091Z,22.68
2022-08-10T16:58:16.190Z,22.62
2022-08-10T17:00:22.394Z,22.62
2022-08-10T17:02:25.987Z,22.66
2022-08-10T17:04:30.612Z,22.68
2022-08-10T17:06:55.814Z,22.69
2022-08-10T17:09:00.174Z,22.73
2022-08-10T17:11:02.654Z,22.73
2022-08-10T17:13:06.700Z,22.58
2022-08-10T17:15:09.475Z,22.64
2022-08-10T17:17:18.926Z,22.69
2022-08-10T17:19:25.477Z,22.76
2022-08-10T17:21:31.559Z,22.81
2022-08-10T17:23:34.491Z,22.86
2022-08-10T17:25:46.194Z,22.88
2022-08-10T17:28:05.224Z,22.86
2022-08-10T17:30:32.251Z,22.89
2022-08-10T17:32:56.325Z,22.89
2022-08-10T17:35:01.934Z,22.54
2022-08-10T17:37:05.305Z,22.45
2022-08-10T17:39:09.283Z,22.11
2022-08-10T17:41:13.207Z,22.15
2022-08-10T17:43:46.251Z,22.29
2022-08-10T17:45:48.246Z,22.39
2022-08-10T17:47:54.816Z,22.49
2022-08-10T17:49:59.717Z,22.44
2022-08-10T17:52:05.394Z,22.53
2022-08-10T17:54:31.168Z,22.58
2022-08-10T17:56:34.754Z,22.64
2022-08-10T17:58:44.314Z,22.60
2022-08-10T18:00:51.850Z,22.65
2022-08-10T18:02:54.373Z,22.72
2022-08-10T18:04:59.952Z,22.76
2022-08-10T18:07:02.509Z,22.80
2022-08-10T18:09:09.799Z,22.79
2022-08-10T18:11:13.580Z,22.81
2022-08-10T18:13:18.264Z,22.80
2022-08-10T18:15:22.362Z,22.73
2022-08-10T18:17:26.479Z,22.74
2022-08-10T18:19:30.236Z,22.68
2022-08-10T18:21:32.528Z,22.60
2022-08-10T18:23:36.489Z,22.59
2022-08-10T18:25:42.233Z,22.67
2022-08-10T18:27:53.870Z,22.63
2022-08-10T18:30:07.560Z,22.54
2022-08-10T18:32:11.294Z,22.49
2022-08-10T18:34:18.508Z,22.51
2022-08-10T18:36:21.004Z,22.46
2022-08-10T18:38:24.198Z,22.46
2022-08-10T18:40:36.204Z,22.48
2022-08-10T18:42:46.435Z,22.47
2022-08-10T18:44:55.370Z,22.44
2022-08-10T18:47:00.975Z,22.32
2022-08-10T18:49:16.842Z,22.30
2022-08-10T18:51:24.338Z,22.35
2022-08-10T18:53:34.291Z,22.29
2022-08-10T18:55:39.730Z,22.33
2022-08-10T18:58:00.492Z,22.32
2022-08-10T19:00:11.764Z,22.37
2022-08-10T19:02:35.771Z,22.42
2022-08-10T19:05:00.582Z,22.44
2022-08-10T19:07:08.567Z,22.40
2022-08-10T19:09:45.865Z,22.35
2022-08-10T19:12:03.574Z,22.29
2022-08-10T19:14:11.305Z,22.32
2022-08-10T19:16:44.568Z,22.19
2022-08-10T19:18:58.358Z,22.19
2022-08-10T19:21:37.954Z,22.15
2022-08-10T19:23:52.342Z,22.26
2022-08-10T19:26:40.699Z,22.30
2022-08-10T19:28:59.942Z,22.29
2022-08-10T19:31:12.449Z,22.31
2022-08-10T19:33:36.026Z,22.33
2022-08-10T19:36:03.566Z,22.29
2022-08-10T19:38:33.395Z,22.27
2022-08-10T19:40:44.762Z,22.21
2022-08-10T19:44:00.424Z,22.22
2022-08-10T19:46:14.751Z,22.19
2022-08-10T19:48:19.300Z,22.26
2022-08-10T19:50:33.845Z,22.23
2022-08-10T19:52:54.311Z,22.13
2022-08-10T19:55:15.032Z,22.11
2022-08-10T19:57:37.612Z,22.07
2022-08-10T20:00:18.649Z,22.08
2022-08-10T20:02:30.725Z,22.09
2022-08-10T20:04:42.120Z,22.06
2022-08-10T20:07:00.254Z,22.09
2022-08-10T20:09:11.357Z,22.12
2022-08-10T20:11:44.462Z,22.15
2022-08-10T20:14:00.843Z,22.14
2022-08-10T20:16:19.099Z,22.20
2022-08-10T20:18:20.775Z,22.20
2022-08-10T20:20:31.779Z,22.25
2022-08-10T20:22:43.089Z,22.28
2022-08-10T20:25:17.747Z,22.31
2022-08-10T20:27:59.715Z,22.38
2022-08-10T20:29:59.421Z,22.35
2022-08-10T20:32:06.448Z,22.33
2022-08-10T20:34:18.491Z,22.22
2022-08-10T20:36:26.211Z,22.24
2022-08-10T20:38:52.343Z,22.22
2022-08-10T20:41:27.069Z,22.19
2022-08-10T20:43:53.327Z,22.16
2022-08-10T20:46:09.645Z,22.23
2022-08-10T20:48:19.857Z,22.21
2022-08-10T20:50:40.357Z,22.26
2022-08-10T20:52:44.317Z,22.32
2022-08-10T20:54:51.053Z,22.33
2022-08-10T20:57:55.848Z,22.33
2022-08-10T21:00:02.548Z,22.37
2022-08-10T21:02:19.838Z,22.32
2022-08-10T21:04:35.973Z,22.32
2022-08-10T21:06:53.724Z,22.28
2022-08-10T21:09:07.386Z,22.32
2022-08-10T21:11:40.283Z,22.33
2022-08-10T21:13:54.393Z,22.33
2022-08-10T21:16:26.713Z,22.32
2022-08-10T21:18:53.815Z,22.32
2022-08-10T21:21:20.025Z,22.37
2022-08-10T21:23:57.266Z,22.38
2022-08-10T21:26:11.528Z,22.37
2022-08-10T21:28:50.220Z,22.35
2022-08-10T21:31:13.562Z,22.34
2022-08-10T21:33:25.731Z,22.33
2022-08-10T21:35:49.631Z,22.38
2022-08-10T21:38:02.874Z,22.40
2022-08-10T21:40:34.467Z,22.41
2022-08-10T21:43:11.014Z,22.42
2022-08-10T21:45:59.718Z,22.45
2022-08-10T21:48:30.787Z,22.42
2022-08-10T21:50:57.830Z,22.38
2022-08-10T21:53:44.807Z,22.41
2022-08-10T21:56:15.849Z,22.39
2022-08-10T21:58:41.744Z,22.42
2022-08-10T22:01:10.300Z,22.41
2022-08-10T22:03:39.548Z,22.33
2022-08-10T22:06:01.564Z,22.25
2022-08-10T22:08:22.469Z,22.23
2022-08-10T22:10:47.232Z,22.26
2022-08-10T22:13:08.572Z,22.22
2022-08-10T22:16:09.673Z,22.23
2022-08-10T22:18:15.185Z,22.18
2022-08-10T22:20:54.813Z,22.19
2022-08-10T22:23:48.233Z,22.21
2022-08-10T22:26:25.128Z,22.24
2022-08-10T22:28:45.360Z,22.17
2022-08-10T22:31:32.534Z,22.14
2022-08-10T22:33:56.251Z,22.14
2022-08-10T22:36:35.504Z,22.09
2022-08-10T22:40:13.207Z,22.08
2022-08-10T22:42:59.222Z,22.08
2022-08-10T22:45:22.238Z,22.13
2022-08-10T22:47:43.450Z,22.11
2022-08-10T22:49:51.756Z,22.12
2022-08-10T22:51:58.547Z,22.10
2022-08-10T22:54:31.038Z,22.07
2022-08-10T22:56:56.560Z,21.82
2022-08-10T22:58:58.420Z,21.77
2022-08-10T23:01:36.818Z,21.72
2022-08-10T23:03:46.681Z,21.67
2022-08-10T23:05:54.416Z,21.63
2022-08-10T23:08:01.853Z,21.57
2022-08-10T23:10:11.138Z,21.57
2022-08-10T23:12:15.869Z,21.45
2022-08-10T23:14:19.278Z,21.40
2022-08-10T23:16:41.055Z,21.34
2022-08-10T23:19:10.127Z,21.40
2022-08-10T23:21:14.127Z,21.36
2022-08-10T23:23:23.727Z,21.33
2022-08-10T23:25:30.103Z,21.35
2022-08-10T23:27:39.274Z,21.39
2022-08-10T23:30:10.134Z,21.43
2022-08-10T23:32:10.248Z,21.45
2022-08-10T23:34:12.836Z,21.44
2022-08-10T23:36:34.535Z,21.50
2022-08-10T23:38:37.851Z,21.48
2022-08-10T23:40:45.411Z,21.46
2022-08-10T23:42:49.599Z,21.52
2022-08-10T23:44:54.633Z,21.56
2022-08-10T23:47:00.035Z,21.60
2022-08-10T23:49:02.965Z,21.65
2022-08-10T23:51:16.766Z,21.66
2022-08-10T23:53:27.163Z,21.66
2022-08-10T23:55:49.230Z,21.65
2022-08-10T23:57:56.552Z,21.63
